createdAt,value
2019-05-26T00:00:47.771Z,87.53
2019-05-26T00:02:49.815Z,95.30
2019-05-26T00:04:52.081Z,88.62
2019-05-26T00:06:54.658Z,93.12
2019-05-26T00:10:58.834Z,95.12
2019-05-26T00:15:03.359Z,86.53
2019-05-26T00:17:05.994Z,88.20
2019-05-26T00:19:08.413Z,91.20
2019-05-26T00:21:10.635Z,93.60
2019-05-26T00:23:12.699Z,92.00
2019-05-26T00:25:22.484Z,97.90
2019-05-26T00:27:24.816Z,88.47
2019-05-26T00:29:27.234Z,86.80
2019-05-26T00:31:35.486Z,92.02
2019-05-26T00:33:37.785Z,96.00
2019-05-26T00:35:40.033Z,92.60
2019-05-26T00:37:50.564Z,89.80
2019-05-26T00:39:46.231Z,90.38
2019-05-26T00:41:48.328Z,87.12
2019-05-26T00:43:50.528Z,90.10
2019-05-26T00:45:52.671Z,84.00
2019-05-26T00:47:54.701Z,80.10
2019-05-26T00:49:56.902Z,88.17
2019-05-26T00:51:59.008Z,85.90
2019-05-26T00:54:01.149Z,75.83
2019-05-26T00:56:03.745Z,90.80
2019-05-26T00:58:06.025Z,82.78
2019-05-26T01:00:08.542Z,84.50
2019-05-26T01:02:10.922Z,77.53
2019-05-26T01:04:12.959Z,85.20
2019-05-26T01:06:15.096Z,81.08
2019-05-26T01:08:17.315Z,85.07
2019-05-26T01:10:19.354Z,85.85
2019-05-26T01:12:21.480Z,81.80
2019-05-26T01:14:23.910Z,83.85
2019-05-26T01:18:28.090Z,84.77
2019-05-26T01:22:34.700Z,80.28
2019-05-26T01:24:36.867Z,84.55
2019-05-26T01:26:39.350Z,89.60
2019-05-26T01:30:43.830Z,80.92
2019-05-26T01:32:46.170Z,90.10
2019-05-26T01:34:51.168Z,78.65
2019-05-26T01:36:53.442Z,82.88
2019-05-26T01:39:04.321Z,79.32
2019-05-26T01:41:06.494Z,85.07
2019-05-26T01:43:08.941Z,80.85
2019-05-26T01:47:15.323Z,79.55
2019-05-26T01:49:17.366Z,72.87
2019-05-26T01:51:19.757Z,74.15
2019-05-26T01:53:21.755Z,74.62
2019-05-26T01:55:25.959Z,71.47
2019-05-26T01:57:28.407Z,73.62
2019-05-26T02:01:32.083Z,68.60
2019-05-26T02:03:34.285Z,67.85
2019-05-26T02:05:36.362Z,67.22
2019-05-26T02:07:38.646Z,68.30
2019-05-26T02:09:41.283Z,71.77
2019-05-26T02:11:43.547Z,68.52
2019-05-26T02:13:45.961Z,63.92
2019-05-26T02:15:48.498Z,61.08
2019-05-26T02:17:50.636Z,64.77
2019-05-26T02:19:52.691Z,67.87
2019-05-26T02:21:57.956Z,70.08
2019-05-26T02:24:00.164Z,72.70
2019-05-26T02:26:03.323Z,67.53
2019-05-26T02:28:06.300Z,65.03
2019-05-26T02:30:09.817Z,65.83
2019-05-26T02:32:11.982Z,69.37
2019-05-26T02:34:14.314Z,67.30
2019-05-26T02:36:16.544Z,66.65
2019-05-26T02:38:18.590Z,63.83
2019-05-26T02:40:21.342Z,67.87
2019-05-26T02:42:23.813Z,63.40
2019-05-26T02:46:27.802Z,70.50
2019-05-26T02:48:29.879Z,70.10
2019-05-26T02:50:31.966Z,63.83
2019-05-26T02:52:34.423Z,65.35
2019-05-26T02:56:38.666Z,63.40
2019-05-26T02:58:41.432Z,56.80
2019-05-26T03:00:44.396Z,65.40
2019-05-26T03:02:46.452Z,66.05
2019-05-26T03:04:49.079Z,59.00
2019-05-26T03:06:52.630Z,60.63
2019-05-26T03:08:57.377Z,62.80
2019-05-26T03:11:01.184Z,58.65
2019-05-26T03:13:04.181Z,59.25
2019-05-26T03:15:09.849Z,58.40
2019-05-26T03:17:12.481Z,56.40
2019-05-26T03:19:17.773Z,52.33
2019-05-26T03:21:21.396Z,54.77
2019-05-26T03:23:27.373Z,58.68
2019-05-26T03:25:31.888Z,56.23
2019-05-26T03:27:33.973Z,58.58
2019-05-26T03:29:36.112Z,59.70
2019-05-26T03:31:38.277Z,56.53
2019-05-26T03:33:40.443Z,61.92
2019-05-26T03:35:42.723Z,57.40
2019-05-26T03:37:45.957Z,55.23
2019-05-26T03:39:48.151Z,56.10
2019-05-26T03:41:52.234Z,58.90
2019-05-26T03:43:54.242Z,53.50
2019-05-26T03:46:19.341Z,55.70
2019-05-26T03:48:21.595Z,58.23
2019-05-26T03:50:23.880Z,58.70
2019-05-26T03:52:26.142Z,54.05
2019-05-26T03:54:28.408Z,48.55
2019-05-26T03:56:33.147Z,53.10
2019-05-26T03:58:35.307Z,56.30
2019-05-26T04:00:37.594Z,51.73
2019-05-26T04:02:39.640Z,51.75
2019-05-26T04:04:41.682Z,50.35
2019-05-26T04:06:44.151Z,49.83
2019-05-26T04:10:47.907Z,48.25
2019-05-26T04:12:50.441Z,49.48
2019-05-26T04:16:57.769Z,53.15
2019-05-26T04:19:00.205Z,51.18
2019-05-26T04:23:05.084Z,54.60
2019-05-26T04:25:08.453Z,52.93
2019-05-26T04:27:10.657Z,51.50
2019-05-26T04:29:12.722Z,56.70
2019-05-26T04:31:15.456Z,50.65
2019-05-26T04:33:17.666Z,53.52
2019-05-26T04:35:19.846Z,50.33
2019-05-26T04:37:22.174Z,53.60
2019-05-26T04:39:24.188Z,49.30
2019-05-26T04:41:26.236Z,54.00
2019-05-26T04:43:28.537Z,52.25
2019-05-26T04:45:30.841Z,48.95
2019-05-26T04:47:32.949Z,54.08
2019-05-26T04:49:37.587Z,60.35
2019-05-26T04:51:42.079Z,50.50
2019-05-26T04:53:44.387Z,53.33
2019-05-26T04:55:46.536Z,49.65
2019-05-26T04:57:48.679Z,48.55
2019-05-26T04:59:50.723Z,45.45
2019-05-26T05:01:53.069Z,46.28
2019-05-26T05:03:55.610Z,49.75
2019-05-26T05:08:00.358Z,45.75
2019-05-26T05:10:02.605Z,51.05
2019-05-26T05:12:05.910Z,46.28
2019-05-26T05:14:08.181Z,50.00
2019-05-26T05:16:11.351Z,46.65
2019-05-26T05:18:13.965Z,45.52
2019-05-26T05:20:16.718Z,51.02
2019-05-26T05:22:18.881Z,42.40
2019-05-26T05:24:20.921Z,44.00
2019-05-26T05:26:24.138Z,45.03
2019-05-26T05:28:26.179Z,41.02
2019-05-26T05:30:28.392Z,42.88
2019-05-26T05:32:33.018Z,40.88
2019-05-26T05:34:34.681Z,45.40
2019-05-26T05:36:41.687Z,41.40
2019-05-26T05:38:44.547Z,45.45
2019-05-26T05:40:58.841Z,45.00
2019-05-26T05:42:50.744Z,41.02
2019-05-26T05:44:53.176Z,44.27
2019-05-26T05:46:55.230Z,43.38
2019-05-26T05:48:57.830Z,44.77
2019-05-26T05:51:00.150Z,40.25
2019-05-26T05:53:02.240Z,40.52
2019-05-26T05:55:05.195Z,37.45
2019-05-26T05:57:07.564Z,41.68
2019-05-26T05:59:09.789Z,38.17
2019-05-26T06:01:12.146Z,41.70
2019-05-26T06:03:17.905Z,42.05
2019-05-26T06:05:18.452Z,42.38
2019-05-26T06:07:20.785Z,38.33
2019-05-26T06:09:24.341Z,40.35
2019-05-26T06:11:26.520Z,38.10
2019-05-26T06:13:28.582Z,37.00
2019-05-26T06:15:33.291Z,36.42
2019-05-26T06:17:35.687Z,34.75
2019-05-26T06:19:37.806Z,32.73
2019-05-26T06:21:40.297Z,32.73
2019-05-26T06:25:44.141Z,35.80
2019-05-26T06:27:46.760Z,36.60
2019-05-26T06:29:58.581Z,36.73
2019-05-26T06:31:53.102Z,36.83
2019-05-26T06:33:55.634Z,32.48
2019-05-26T06:35:57.863Z,38.00
2019-05-26T06:38:01.101Z,29.90
2019-05-26T06:40:04.631Z,39.67
2019-05-26T06:42:07.072Z,32.88
2019-05-26T06:46:15.086Z,34.45
2019-05-26T06:48:18.736Z,37.70
2019-05-26T06:50:24.317Z,36.03
2019-05-26T06:52:39.469Z,36.98
2019-05-26T06:54:40.773Z,33.67
2019-05-26T06:56:42.809Z,33.83
2019-05-26T06:58:45.668Z,32.88
2019-05-26T07:00:47.733Z,34.73
2019-05-26T07:02:49.749Z,35.80
2019-05-26T07:04:51.955Z,35.20
2019-05-26T07:06:54.157Z,36.98
2019-05-26T07:08:58.014Z,32.10
2019-05-26T07:11:00.499Z,31.27
2019-05-26T07:15:05.135Z,37.30
2019-05-26T07:17:07.864Z,38.38
2019-05-26T07:19:09.979Z,30.35
2019-05-26T07:21:11.979Z,35.40
2019-05-26T07:23:14.314Z,31.42
2019-05-26T07:25:16.612Z,33.13
2019-05-26T07:27:18.655Z,32.13
2019-05-26T07:29:21.158Z,35.55
2019-05-26T07:31:23.873Z,31.80
2019-05-26T07:33:25.881Z,41.68
2019-05-26T07:35:28.111Z,39.13
2019-05-26T07:37:30.202Z,37.00
2019-05-26T07:39:32.358Z,38.02
2019-05-26T07:41:34.612Z,31.48
2019-05-26T07:43:36.698Z,33.55
2019-05-26T07:45:38.782Z,30.97
2019-05-26T07:47:41.307Z,31.30
2019-05-26T07:51:46.404Z,26.42
2019-05-26T07:53:48.670Z,25.97
2019-05-26T07:55:50.920Z,31.20
2019-05-26T07:57:52.981Z,25.65
2019-05-26T07:59:55.125Z,33.28
2019-05-26T08:01:57.234Z,27.70
2019-05-26T08:03:59.366Z,31.62
2019-05-26T08:06:01.543Z,25.95
2019-05-26T08:08:12.730Z,22.52
2019-05-26T08:10:09.282Z,27.25
2019-05-26T08:12:25.121Z,24.70
2019-05-26T08:14:15.718Z,21.10
2019-05-26T08:16:17.772Z,17.67
2019-05-26T08:18:20.060Z,24.00
2019-05-26T08:20:23.082Z,24.37
2019-05-26T08:22:25.166Z,23.18
2019-05-26T08:24:27.377Z,16.25
2019-05-26T08:28:31.551Z,22.87
2019-05-26T08:30:35.033Z,17.37
2019-05-26T08:32:37.187Z,18.37
2019-05-26T08:34:41.153Z,21.87
2019-05-26T08:36:43.534Z,18.90
2019-05-26T08:40:47.467Z,19.85
2019-05-26T08:42:50.335Z,23.12
2019-05-26T08:44:52.395Z,17.85
2019-05-26T08:46:54.393Z,13.75
2019-05-26T08:48:56.625Z,19.85
2019-05-26T08:50:58.720Z,21.12
2019-05-26T08:53:00.941Z,17.67
2019-05-26T08:55:03.583Z,18.57
2019-05-26T08:59:07.342Z,13.55
2019-05-26T09:01:09.754Z,22.32
2019-05-26T09:05:14.115Z,15.45
2019-05-26T09:07:16.504Z,19.30
2019-05-26T09:09:18.742Z,15.88
2019-05-26T09:11:21.129Z,21.23
2019-05-26T09:13:24.340Z,17.15
2019-05-26T09:15:26.397Z,21.75
2019-05-26T09:17:28.523Z,18.10
2019-05-26T09:19:33.932Z,20.30
2019-05-26T09:21:36.197Z,19.27
2019-05-26T09:23:38.447Z,20.37
2019-05-26T09:25:42.136Z,16.50
2019-05-26T09:27:45.421Z,13.65
2019-05-26T09:29:47.470Z,18.67
2019-05-26T09:31:49.767Z,18.20
2019-05-26T09:33:51.933Z,19.42
2019-05-26T09:35:54.805Z,17.98
2019-05-26T09:37:57.183Z,20.02
2019-05-26T09:40:03.057Z,27.70
2019-05-26T09:42:05.060Z,17.90
2019-05-26T09:44:07.361Z,20.40
2019-05-26T09:46:09.727Z,20.68
2019-05-26T09:48:11.759Z,23.32
2019-05-26T09:50:15.459Z,19.05
2019-05-26T09:52:17.998Z,19.25
2019-05-26T09:56:21.995Z,24.80
2019-05-26T10:00:25.931Z,19.23
2019-05-26T10:02:28.677Z,19.62
2019-05-26T10:04:30.779Z,22.48
2019-05-26T10:06:32.807Z,20.10
2019-05-26T10:08:35.087Z,18.95
2019-05-26T10:10:39.092Z,21.50
2019-05-26T10:12:41.204Z,14.73
2019-05-26T10:14:43.410Z,18.45
2019-05-26T10:16:45.847Z,15.55
2019-05-26T10:20:50.834Z,22.87
2019-05-26T10:22:52.888Z,19.77
2019-05-26T10:24:54.999Z,16.42
2019-05-26T10:26:57.413Z,18.92
2019-05-26T10:29:00.666Z,16.62
2019-05-26T10:31:03.183Z,17.98
2019-05-26T10:33:05.559Z,18.00
2019-05-26T10:35:08.294Z,19.67
2019-05-26T10:37:10.712Z,17.98
2019-05-26T10:39:15.280Z,25.68
2019-05-26T10:41:17.424Z,19.12
2019-05-26T10:43:20.693Z,17.00
2019-05-26T10:45:23.175Z,19.52
2019-05-26T10:47:25.526Z,21.73
2019-05-26T10:51:51.100Z,16.97
2019-05-26T10:53:53.305Z,16.77
2019-05-26T10:55:55.464Z,12.50
2019-05-26T10:57:59.593Z,20.08
2019-05-26T11:00:02.357Z,16.15
2019-05-26T11:02:04.716Z,13.35
2019-05-26T11:04:07.228Z,17.25
2019-05-26T11:08:11.631Z,18.45
2019-05-26T11:12:16.415Z,16.23
2019-05-26T11:14:18.662Z,17.20
2019-05-26T11:16:22.545Z,12.55
2019-05-26T11:18:25.531Z,15.18
2019-05-26T11:20:29.141Z,14.25
2019-05-26T11:22:31.850Z,15.53
2019-05-26T11:24:34.194Z,15.65
2019-05-26T11:26:37.904Z,16.65
2019-05-26T11:28:42.678Z,11.30
2019-05-26T11:30:45.228Z,15.23
2019-05-26T11:35:01.107Z,19.33
2019-05-26T11:36:54.740Z,14.93
2019-05-26T11:40:59.807Z,18.73
2019-05-26T11:43:15.633Z,21.68
2019-05-26T11:45:08.369Z,14.47
2019-05-26T11:47:11.042Z,12.80
2019-05-26T11:49:14.059Z,19.62
2019-05-26T11:51:16.357Z,17.73
2019-05-26T11:55:20.650Z,15.10
2019-05-26T11:57:23.061Z,18.65
2019-05-26T11:59:25.421Z,16.62
2019-05-26T12:03:29.809Z,18.07
2019-05-26T12:05:33.308Z,15.85
2019-05-26T12:09:37.545Z,18.55
2019-05-26T12:11:40.362Z,14.58
2019-05-26T12:13:42.365Z,12.73
2019-05-26T12:15:50.933Z,14.70
2019-05-26T12:18:09.131Z,12.55
2019-05-26T12:23:02.547Z,11.55
2019-05-26T12:25:05.420Z,16.73
2019-05-26T12:27:07.594Z,15.63
2019-05-26T12:31:58.093Z,12.63
2019-05-26T12:32:23.719Z,16.30
2019-05-26T12:34:27.095Z,15.30
2019-05-26T12:36:30.643Z,20.05
2019-05-26T12:38:36.124Z,11.97
2019-05-26T12:40:38.424Z,16.87
2019-05-26T12:42:40.997Z,13.40
2019-05-26T12:44:49.596Z,16.77
2019-05-26T12:46:48.310Z,13.03
2019-05-26T12:48:50.956Z,14.20
2019-05-26T12:52:55.139Z,11.97
2019-05-26T12:54:57.619Z,9.73
2019-05-26T12:57:00.406Z,8.00
2019-05-26T12:59:04.675Z,8.30
2019-05-26T13:01:07.147Z,12.15
2019-05-26T13:03:09.800Z,10.93
2019-05-26T13:05:14.436Z,10.95
2019-05-26T13:07:17.102Z,10.20
2019-05-26T13:09:20.543Z,11.08
2019-05-26T13:11:23.072Z,8.38
2019-05-26T13:15:28.696Z,7.30
2019-05-26T13:17:33.913Z,13.43
2019-05-26T13:19:36.623Z,11.43
2019-05-26T13:21:39.049Z,8.75
2019-05-26T13:25:45.545Z,9.23
2019-05-26T13:27:48.675Z,9.63
2019-05-26T13:29:51.117Z,8.60
2019-05-26T13:31:53.324Z,5.15
2019-05-26T13:33:56.274Z,14.28
2019-05-26T13:35:58.611Z,8.38
2019-05-26T13:38:01.026Z,13.25
2019-05-26T13:42:06.934Z,14.95
2019-05-26T13:44:09.055Z,11.95
2019-05-26T13:46:11.294Z,10.05
2019-05-26T13:48:13.806Z,12.15
2019-05-26T13:50:16.681Z,15.70
2019-05-26T13:52:19.078Z,12.20
2019-05-26T13:54:21.264Z,10.05
2019-05-26T13:56:23.531Z,13.93
2019-05-26T13:58:25.856Z,13.30
2019-05-26T14:00:28.278Z,13.30
2019-05-26T14:02:31.790Z,13.90
2019-05-26T14:04:34.155Z,20.52
2019-05-26T14:06:36.370Z,16.62
2019-05-26T14:08:38.726Z,17.67
2019-05-26T14:12:43.399Z,13.98
2019-05-26T14:14:45.916Z,12.47
2019-05-26T14:16:50.840Z,16.07
2019-05-26T14:18:55.315Z,15.38
2019-05-26T14:20:57.553Z,15.40
2019-05-26T14:22:59.894Z,16.93
2019-05-26T14:27:04.300Z,14.98
2019-05-26T14:31:08.138Z,11.00
2019-05-26T14:33:10.754Z,9.53
2019-05-26T14:35:15.785Z,11.28
2019-05-26T14:37:17.894Z,7.65
2019-05-26T14:39:20.262Z,10.58
2019-05-26T14:41:24.086Z,6.92
2019-05-26T14:43:26.887Z,10.13
2019-05-26T14:45:29.185Z,18.23
2019-05-26T14:49:34.144Z,23.62
2019-05-26T14:51:36.623Z,27.13
2019-05-26T14:53:39.643Z,24.45
2019-05-26T14:55:42.092Z,25.80
2019-05-26T14:59:50.690Z,24.75
2019-05-26T15:01:52.776Z,27.87
2019-05-26T15:03:55.104Z,30.37
2019-05-26T15:06:05.801Z,22.65
2019-05-26T15:08:01.786Z,26.65
2019-05-26T15:10:07.039Z,22.40
2019-05-26T15:12:09.965Z,22.75
2019-05-26T15:14:15.224Z,25.48
2019-05-26T15:16:19.445Z,16.42
2019-05-26T15:18:22.253Z,22.95
2019-05-26T15:20:25.017Z,15.08
2019-05-26T15:22:27.220Z,14.98
2019-05-26T15:24:29.804Z,21.80
2019-05-26T15:28:33.930Z,15.10
2019-05-26T15:30:36.714Z,13.72
2019-05-26T15:32:40.227Z,17.60
2019-05-26T15:34:45.404Z,16.32
2019-05-26T15:36:48.699Z,15.43
2019-05-26T15:38:50.878Z,25.08
2019-05-26T15:40:53.610Z,16.20
2019-05-26T15:42:55.837Z,13.95
2019-05-26T15:44:58.923Z,15.68
2019-05-26T15:47:01.000Z,14.18
2019-05-26T15:49:03.286Z,9.75
2019-05-26T15:51:05.383Z,13.95
2019-05-26T15:53:07.499Z,12.70
2019-05-26T15:55:11.237Z,9.35
2019-05-26T15:57:14.676Z,12.47
2019-05-26T15:59:17.793Z,9.45
2019-05-26T16:01:19.948Z,5.92
2019-05-26T16:03:22.208Z,8.70
2019-05-26T16:05:24.700Z,11.08
2019-05-26T16:09:29.479Z,9.18
2019-05-26T16:11:31.600Z,6.90
2019-05-26T16:13:34.443Z,10.65
2019-05-26T16:15:36.727Z,14.47
2019-05-26T16:17:40.367Z,10.30
2019-05-26T16:19:42.892Z,10.80
2019-05-26T16:23:48.987Z,14.95
2019-05-26T16:25:51.544Z,9.33
2019-05-26T16:29:55.822Z,12.98
2019-05-26T16:31:59.238Z,11.60
2019-05-26T16:34:01.721Z,12.40
2019-05-26T16:36:04.548Z,11.15
2019-05-26T16:38:07.129Z,13.15
2019-05-26T16:40:09.850Z,12.18
2019-05-26T16:42:13.045Z,9.98
2019-05-26T16:44:15.830Z,14.87
2019-05-26T16:46:19.328Z,14.85
2019-05-26T16:48:22.274Z,10.58
2019-05-26T16:52:27.049Z,11.40
2019-05-26T16:54:29.579Z,15.83
2019-05-26T16:56:32.026Z,15.70
2019-05-26T17:00:37.976Z,11.88
2019-05-26T17:02:40.531Z,13.40
2019-05-26T17:04:42.738Z,9.68
2019-05-26T17:06:45.044Z,11.43
2019-05-26T17:08:47.291Z,12.13
2019-05-26T17:10:52.362Z,13.88
2019-05-26T17:12:54.474Z,11.70
2019-05-26T17:14:56.545Z,12.80
2019-05-26T17:17:13.529Z,17.07
2019-05-26T17:19:03.046Z,13.88
2019-05-26T17:23:06.958Z,12.90
2019-05-26T17:25:09.535Z,9.95
2019-05-26T17:27:11.585Z,17.60
2019-05-26T17:29:13.964Z,12.15
2019-05-26T17:31:18.002Z,12.98
2019-05-26T17:33:20.371Z,14.05
2019-05-26T17:35:22.578Z,13.25
2019-05-26T17:37:25.117Z,14.15
2019-05-26T17:39:27.568Z,15.20
2019-05-26T17:43:32.178Z,8.90
2019-05-26T17:45:37.224Z,12.78
2019-05-26T17:47:39.875Z,10.15
2019-05-26T17:49:42.422Z,15.15
2019-05-26T17:51:44.853Z,10.63
2019-05-26T17:55:49.233Z,14.80
2019-05-26T17:57:53.441Z,11.93
2019-05-26T17:59:55.808Z,18.57
2019-05-26T18:01:58.102Z,25.65
2019-05-26T18:04:01.264Z,28.92
2019-05-26T18:06:03.827Z,25.72
2019-05-26T18:08:06.266Z,23.77
2019-05-26T18:10:09.757Z,17.98
2019-05-26T18:12:13.138Z,22.20
2019-05-26T18:14:16.818Z,17.30
2019-05-26T18:16:21.480Z,18.48
2019-05-26T18:18:23.723Z,17.90
2019-05-26T18:20:27.341Z,18.90
2019-05-26T18:22:30.069Z,22.85
2019-05-26T18:24:32.391Z,19.05
2019-05-26T18:26:36.175Z,24.95
2019-05-26T18:28:38.585Z,21.10
2019-05-26T18:32:43.817Z,23.32
2019-05-26T18:34:46.188Z,24.47
2019-05-26T18:36:48.870Z,26.52
2019-05-26T18:38:51.013Z,27.30
2019-05-26T18:40:53.512Z,24.50
2019-05-26T18:42:55.879Z,20.45
2019-05-26T18:44:58.611Z,23.32
2019-05-26T18:47:00.939Z,29.48
2019-05-26T18:51:05.351Z,33.28
2019-05-26T18:53:07.918Z,32.78
2019-05-26T18:55:10.244Z,29.48
2019-05-26T18:57:12.431Z,29.32
2019-05-26T18:59:14.788Z,28.67
2019-05-26T19:01:16.933Z,26.02
2019-05-26T19:03:19.906Z,34.43
2019-05-26T19:05:33.104Z,33.55
2019-05-26T19:07:26.491Z,27.62
2019-05-26T19:09:28.825Z,35.80
2019-05-26T19:11:31.303Z,36.17
2019-05-26T19:13:35.597Z,33.45
2019-05-26T19:15:37.735Z,29.95
2019-05-26T19:17:40.891Z,37.08
2019-05-26T19:19:43.450Z,34.85
2019-05-26T19:23:48.791Z,36.75
2019-05-26T19:25:51.248Z,39.40
2019-05-26T19:29:55.783Z,31.15
2019-05-26T19:31:58.202Z,29.18
2019-05-26T19:34:00.531Z,31.50
2019-05-26T19:36:09.107Z,26.10
2019-05-26T19:38:07.874Z,25.85
2019-05-26T19:40:29.626Z,23.90
2019-05-26T19:42:32.141Z,26.05
2019-05-26T19:46:36.430Z,18.48
2019-05-26T19:48:38.903Z,22.75
2019-05-26T19:52:43.024Z,16.55
2019-05-26T19:54:45.702Z,12.65
2019-05-26T19:56:48.347Z,13.65
2019-05-26T20:00:52.313Z,13.80
2019-05-26T20:02:54.494Z,14.95
2019-05-26T20:04:56.668Z,11.55
2019-05-26T20:06:59.033Z,14.20
2019-05-26T20:09:01.174Z,14.87
2019-05-26T20:11:03.910Z,9.40
2019-05-26T20:13:06.519Z,11.22
2019-05-26T20:17:11.561Z,16.87
2019-05-26T20:21:16.034Z,17.93
2019-05-26T20:23:18.238Z,11.97
2019-05-26T20:25:20.551Z,14.33
2019-05-26T20:27:22.596Z,13.03
2019-05-26T20:29:26.913Z,10.82
2019-05-26T20:31:30.819Z,17.27
2019-05-26T20:33:33.839Z,15.13
2019-05-26T20:35:36.326Z,14.80
2019-05-26T20:39:40.826Z,18.10
2019-05-26T20:41:43.133Z,20.27
2019-05-26T20:43:45.940Z,18.50
2019-05-26T20:45:48.107Z,11.97
2019-05-26T20:47:50.260Z,16.73
2019-05-26T20:49:52.841Z,17.15
2019-05-26T20:51:55.107Z,19.32
2019-05-26T20:53:58.468Z,19.90
2019-05-26T20:56:00.705Z,13.32
2019-05-26T20:58:03.006Z,11.68
2019-05-26T21:00:06.194Z,16.77
2019-05-26T21:02:08.437Z,17.37
2019-05-26T21:04:10.735Z,21.00
2019-05-26T21:06:13.949Z,21.50
2019-05-26T21:08:20.006Z,17.05
2019-05-26T21:10:23.583Z,18.05
2019-05-26T21:12:25.836Z,25.90
2019-05-26T21:14:28.365Z,26.30
2019-05-26T21:16:30.448Z,20.10
2019-05-26T21:18:32.533Z,24.40
2019-05-26T21:20:34.847Z,27.40
2019-05-26T21:22:37.026Z,30.52
2019-05-26T21:24:39.215Z,23.85
2019-05-26T21:26:41.866Z,32.38
2019-05-26T21:28:43.990Z,37.65
2019-05-26T21:30:47.307Z,30.17
2019-05-26T21:32:49.553Z,30.50
2019-05-26T21:34:51.647Z,37.73
2019-05-26T21:36:53.922Z,34.35
2019-05-26T21:38:57.190Z,36.77
2019-05-26T21:40:59.282Z,32.03
2019-05-26T21:43:01.341Z,31.07
2019-05-26T21:45:04.534Z,37.70
2019-05-26T21:47:06.602Z,34.83
2019-05-26T21:49:08.860Z,38.80
2019-05-26T21:53:14.438Z,32.65
2019-05-26T21:55:17.126Z,36.45
2019-05-26T21:57:24.905Z,34.80
2019-05-26T21:59:27.209Z,40.15
2019-05-26T22:01:29.224Z,46.25
2019-05-26T22:03:31.559Z,33.67
2019-05-26T22:05:33.585Z,38.75
2019-05-26T22:07:35.933Z,41.77
2019-05-26T22:09:38.136Z,39.67
2019-05-26T22:11:40.321Z,39.80
2019-05-26T22:13:42.353Z,45.85
2019-05-26T22:15:45.557Z,51.02
2019-05-26T22:20:13.147Z,43.90
2019-05-26T22:24:17.110Z,44.80
2019-05-26T22:26:19.395Z,46.15
2019-05-26T22:28:22.210Z,41.77
2019-05-26T22:30:24.241Z,42.70
2019-05-26T22:32:26.375Z,36.65
2019-05-26T22:34:28.612Z,36.17
2019-05-26T22:36:30.649Z,31.95
2019-05-26T22:38:32.685Z,32.17
2019-05-26T22:40:34.992Z,34.65
2019-05-26T22:42:37.031Z,34.03
2019-05-26T22:44:39.442Z,46.75
2019-05-26T22:46:41.448Z,55.95
2019-05-26T22:48:43.576Z,44.20
2019-05-26T22:50:45.623Z,33.88
2019-05-26T22:52:47.757Z,36.20
2019-05-26T22:54:49.823Z,42.60
2019-05-26T22:56:51.957Z,44.80
2019-05-26T22:58:54.314Z,30.60
2019-05-26T23:00:56.555Z,36.80
2019-05-26T23:02:58.720Z,35.65
2019-05-26T23:05:00.982Z,33.85
2019-05-26T23:07:03.150Z,40.88
2019-05-26T23:09:05.367Z,40.30
2019-05-26T23:11:07.980Z,33.42
2019-05-26T23:13:11.931Z,38.05
2019-05-26T23:15:14.239Z,35.70
2019-05-26T23:17:16.504Z,31.33
2019-05-26T23:19:20.271Z,28.00
2019-05-26T23:21:22.496Z,22.98
2019-05-26T23:23:25.153Z,24.32
2019-05-26T23:25:27.205Z,32.03
2019-05-26T23:27:29.288Z,28.47
2019-05-26T23:29:31.636Z,16.62
2019-05-26T23:31:34.851Z,27.15
2019-05-26T23:33:36.873Z,17.98
2019-05-26T23:35:39.074Z,15.63
2019-05-26T23:37:41.222Z,21.73
2019-05-26T23:39:43.308Z,20.10
2019-05-26T23:41:45.747Z,19.60
2019-05-26T23:45:49.649Z,16.77
2019-05-26T23:47:52.040Z,12.90
2019-05-26T23:52:04.762Z,13.83
2019-05-26T23:54:08.251Z,16.85
2019-05-26T23:56:10.442Z,19.23
2019-05-26T23:58:12.458Z,18.82
